TAF Text Data
IDs:
Format:
Raw Decoded Include METAR

Data at: 1320 UTC 19 Feb 2020

KCHO 191120Z 1912/2012 35007KT P6SM BKN110
  FM191400 35007KT P6SM SCT250
  FM200400 00000KT P6SM BKN200